Terminal Aerodrome Forecast
Issued by NWS Shreveport, LA

Home | Current Version | Previous Version | Text Only | Print | Product List | Glossary On
Versions: 1 2 3 4 5 6 7 8 9 10 11 12 13 14 15 16 17 18 19 20 21 22 23 24 25 26
000
FTUS44 KSHV 222321
TAFSHV
TAF
KSHV 222321Z 2300/2324 VRB03KT P6SM BKN280
     FM231500 16007KT P6SM SCT150 BKN250
     FM232100 17008KT P6SM SCT060 SCT150 BKN250=

USA.gov is the U.S. government's official web portal to all federal, state and local government web resources and services.